Taiki Maru — JI3464 — position and weather

sailwx.info

Track history (hours):
 
Tides and Currents Weather Stations Pressure Air Temp Water Temp Dewpoint Dewpoint Depression Visibility Wind Speed Wind Dir Waves Ship Positions

Taiki Maru

Last reported at 2016-Jul-22 11:33 UTC. Time now 2016-Jul-27 19:17 UTC.
Position N 34°38' E 135°00'.

Length 93 m; draft 5.2 m.

Type: Cargo ship. MMSI: 431300622.

Date/timePositionNaut miles runAvg speedWind from/ knotsBaromVisibWave heightAir tempDewpointWater temp
2016-Jul-22 11:33N 34°38' E 135°00'1313.4
2016-Jul-22 10:33N 34°36' E 135°16'9 8.4
2016-Jul-22 09:27N 34°40' E 135°27'0 0.0
2016-Jul-22 08:33N 34°40' E 135°27'0 0.0
2016-Jul-22 04:15N 34°40' E 135°27'0 0.0
2016-Jul-22 02:09N 34°40' E 135°27'0 0.0
2016-Jul-22 01:21N 34°40' E 135°27'0 0.0
2016-Jul-22 00:33N 34°40' E 135°27'0 0.0
2016-Jul-21 23:33N 34°40' E 135°27'2 2.5
2016-Jul-21 22:33N 34°39' E 135°24'6 5.6
2016-Jul-21 21:32N 34°36' E 135°18'0 0.1
2016-Jul-21 20:32N 34°36' E 135°18'0 0.0
2016-Jul-21 19:32N 34°36' E 135°18'0 0.0
2016-Jul-21 18:32N 34°36' E 135°18'0 0.0
2016-Jul-21 17:32N 34°36' E 135°18'0 0.0
2016-Jul-21 16:32N 34°36' E 135°18'0 0.0
2016-Jul-21 15:32N 34°36' E 135°18'0 0.0
2016-Jul-21 14:32N 34°36' E 135°18'0 0.0
2016-Jul-21 13:26N 34°36' E 135°18'0 0.0
2016-Jul-21 12:32N 34°36' E 135°18'0 0.0
2016-Jul-21 11:20N 34°36' E 135°18'0 0.1
2016-Jul-21 10:26N 34°36' E 135°18'0 0.0
2016-Jul-21 09:32N 34°36' E 135°18'0 0.0
2016-Jul-21 08:32N 34°36' E 135°18'0 0.0
2016-Jul-21 07:32N 34°36' E 135°18'0 0.0
2016-Jul-21 06:32N 34°36' E 135°18'0 0.0
2016-Jul-21 05:32N 34°36' E 135°18'0 0.1
2016-Jul-21 04:32N 34°36' E 135°18'0 0.0
2016-Jul-21 03:32N 34°36' E 135°18'0 0.0
2016-Jul-21 02:26N 34°36' E 135°18'0 0.0
2016-Jul-21 01:26N 34°36' E 135°18'0 0.0
2016-Jul-21 00:26N 34°36' E 135°18'0 0.0
2016-Jul-20 23:14N 34°36' E 135°18'0 0.0
2016-Jul-20 22:32N 34°36' E 135°18'8 8.0
2016-Jul-20 21:33N 34°29' E 135°13'1211.8
2016-Jul-20 20:33N 34°21' E 135°03'7 7.0
2016-Jul-20 19:33N 34°14' E 135°06'1 1.3
2016-Jul-20 18:32N 34°14' E 135°08'0 0.0
2016-Jul-20 17:32N 34°14' E 135°08'0 0.0
2016-Jul-20 16:32N 34°14' E 135°08'0 0.0
2016-Jul-20 15:32N 34°14' E 135°08'0 0.0
2016-Jul-20 14:32N 34°14' E 135°08'0 0.0
2016-Jul-20 13:26N 34°14' E 135°08'0 0.0
2016-Jul-20 12:26N 34°14' E 135°08'0 0.0
2016-Jul-20 11:32N 34°14' E 135°08'0 0.0
2016-Jul-20 10:32N 34°14' E 135°08'0 0.0
2016-Jul-20 09:23N 34°14' E 135°08'0 0.0
2016-Jul-20 08:29N 34°14' E 135°08'0 0.0
2016-Jul-20 07:23N 34°14' E 135°08'0 0.0
2016-Jul-20 06:34N 34°14' E 135°08'6 5.6
2016-Jul-20 05:33N 34°10' E 135°03'1413.2
2016-Jul-20 04:31N 33°56' E 135°00'22811.9
2016-Jul-19 09:23N 34°57' E 139°27'1313.3
2016-Jul-19 08:24N 35°05' E 139°40'1112.6
2016-Jul-19 07:33N 35°14' E 139°46'15 5.1
2016-Jul-19 04:32N 35°29' E 139°40'0 0.0
2016-Jul-19 03:32N 35°29' E 139°40'0 0.0
2016-Jul-19 02:32N 35°29' E 139°40'0 0.0
2016-Jul-19 01:32N 35°29' E 139°40'0 0.0
2016-Jul-19 00:32N 35°29' E 139°40'0 0.0
2016-Jul-18 23:32N 35°29' E 139°40'0 0.0
2016-Jul-18 22:32N 35°29' E 139°40'0 0.0
2016-Jul-18 21:32N 35°29' E 139°40'0 0.0
2016-Jul-18 20:32N 35°29' E 139°40'0 0.0
2016-Jul-18 19:32N 35°29' E 139°40'0 0.0
2016-Jul-18 18:32N 35°29' E 139°40'0 0.0
2016-Jul-18 17:32N 35°29' E 139°40'0 0.0
2016-Jul-18 16:32N 35°29' E 139°40'0 0.0
2016-Jul-18 15:32N 35°29' E 139°40'0 0.0
2016-Jul-18 14:32N 35°29' E 139°40'0 0.0
2016-Jul-18 13:32N 35°29' E 139°40'0 0.0
2016-Jul-18 12:32N 35°29' E 139°40'0 0.0
2016-Jul-18 11:32N 35°29' E 139°40'0 0.0
2016-Jul-18 10:32N 35°29' E 139°40'0 0.0
2016-Jul-18 09:32N 35°29' E 139°40'0 0.0
2016-Jul-18 08:32N 35°29' E 139°40'0 0.0
2016-Jul-18 07:32N 35°29' E 139°40'0 0.0
2016-Jul-18 06:32N 35°29' E 139°40'0 0.0
2016-Jul-18 05:32N 35°29' E 139°40'0 0.0
2016-Jul-18 04:32N 35°29' E 139°40'0 0.0
2016-Jul-18 03:32N 35°29' E 139°40'0 0.0
2016-Jul-18 02:32N 35°29' E 139°40'0 0.3
2016-Jul-18 01:33N 35°29' E 139°40'9 8.7
2016-Jul-18 00:34N 35°20' E 139°43'1211.7
2016-Jul-17 23:33N 35°09' E 139°46'1612.2
2016-Jul-17 22:15N 34°57' E 139°32'5812.2
2016-Jul-17 17:29N 34°28' E 138°32'17510.7
2016-Jul-17 01:04N 34°05' E 135°02'713.1
2016-Jul-17 00:33N 34°11' E 135°04'4 4.4
2016-Jul-16 23:33N 34°14' E 135°08'0 0.0
2016-Jul-16 22:33N 34°14' E 135°08'0 0.0
2016-Jul-16 21:33N 34°14' E 135°08'0 0.0
2016-Jul-16 20:33N 34°14' E 135°08'0 0.0
2016-Jul-16 19:33N 34°14' E 135°08'0 0.0
2016-Jul-16 18:33N 34°14' E 135°08'1 0.5
2016-Jul-16 17:33N 34°14' E 135°07'7 6.9
2016-Jul-16 16:33N 34°16' E 134°59'1312.7
2016-Jul-16 15:29N 34°29' E 135°02'8 8.8
2016-Jul-16 14:31N 34°36' E 134°57'13 0.4
2016-Jul-15 09:33N 34°41' E 134°42'1514.7
2016-Jul-15 08:31N 34°38' E 134°60'1111.9
2016-Jul-15 07:33N 34°27' E 135°03'1413.9
2016-Jul-15 06:33N 34°13' E 134°59'240 9.6
2016-Jul-14 05:34N 35°08' E 139°44'1211.8
2016-Jul-14 04:34N 35°20' E 139°43'1312.9
2016-Jul-14 03:33N 35°31' E 139°52'9 7.1
2016-Jul-14 02:17N 35°38' E 139°45'0 0.0
2016-Jul-14 01:26N 35°38' E 139°45'0 0.0
2016-Jul-14 00:26N 35°38' E 139°45'0 0.0
2016-Jul-13 23:33N 35°38' E 139°45'1 0.6
2016-Jul-13 22:33N 35°37' E 139°46'6 5.9
2016-Jul-13 21:32N 35°34' E 139°52'0 0.0
2016-Jul-13 20:32N 35°34' E 139°52'0 0.0
2016-Jul-13 19:33N 35°34' E 139°52'0 0.0
2016-Jul-13 18:33N 35°34' E 139°52'0 0.0
2016-Jul-13 17:33N 35°34' E 139°52'0 0.0
2016-Jul-13 16:32N 35°34' E 139°52'0 0.0
2016-Jul-13 15:32N 35°34' E 139°52'0 0.0
2016-Jul-13 14:32N 35°34' E 139°52'0 0.0
2016-Jul-13 13:33N 35°34' E 139°52'1 1.0
2016-Jul-13 12:33N 35°33' E 139°52'1010.3
2016-Jul-13 11:33N 35°26' E 139°42'3 3.0
2016-Jul-13 10:33N 35°29' E 139°40'0 0.0
2016-Jul-13 09:33N 35°29' E 139°40'0 0.0
2016-Jul-13 08:33N 35°29' E 139°40'0 0.0
2016-Jul-13 07:33N 35°29' E 139°40'0 0.0
2016-Jul-13 06:33N 35°29' E 139°40'0 0.0
2016-Jul-13 05:33N 35°29' E 139°40'0 0.0
2016-Jul-13 04:33N 35°29' E 139°40'0 0.0
2016-Jul-13 03:33N 35°29' E 139°40'2 1.7
2016-Jul-13 02:33N 35°27' E 139°41'2 1.5
2016-Jul-13 01:31N 35°26' E 139°42'0 0.0
2016-Jul-13 00:31N 35°26' E 139°42'0 0.0
2016-Jul-12 23:31N 35°26' E 139°42'0 0.0
2016-Jul-12 22:31N 35°26' E 139°42'6 6.0
2016-Jul-12 21:33N 35°20' E 139°43'1111.2
2016-Jul-12 20:33N 35°09' E 139°46'  
Track history (hours):
 
Tides and Currents Weather Stations Pressure Air Temp Water Temp Dewpoint Dewpoint Depression Visibility Wind Speed Wind Dir Waves Ship Positions

Taiki Maru

Last reported at 2016-Jul-22 11:33 UTC. Time now 2016-Jul-27 19:17 UTC.
Position N 34°38' E 135°00'.

Length 93 m; draft 5.2 m.

Type: Cargo ship. MMSI: 431300622.

Date/timePositionNaut miles runAvg speedWind from/ knotsBaromVisibWave heightAir tempDewpointWater temp
2016-Jul-22 11:33N 34°38' E 135°00'1313.4
2016-Jul-22 10:33N 34°36' E 135°16'9 8.4
2016-Jul-22 09:27N 34°40' E 135°27'0 0.0
2016-Jul-22 08:33N 34°40' E 135°27'0 0.0
2016-Jul-22 04:15N 34°40' E 135°27'0 0.0
2016-Jul-22 02:09N 34°40' E 135°27'0 0.0
2016-Jul-22 01:21N 34°40' E 135°27'0 0.0
2016-Jul-22 00:33N 34°40' E 135°27'0 0.0
2016-Jul-21 23:33N 34°40' E 135°27'2 2.5
2016-Jul-21 22:33N 34°39' E 135°24'6 5.6
2016-Jul-21 21:32N 34°36' E 135°18'0 0.1
2016-Jul-21 20:32N 34°36' E 135°18'0 0.0
2016-Jul-21 19:32N 34°36' E 135°18'0 0.0
2016-Jul-21 18:32N 34°36' E 135°18'0 0.0
2016-Jul-21 17:32N 34°36' E 135°18'0 0.0
2016-Jul-21 16:32N 34°36' E 135°18'0 0.0
2016-Jul-21 15:32N 34°36' E 135°18'0 0.0
2016-Jul-21 14:32N 34°36' E 135°18'0 0.0
2016-Jul-21 13:26N 34°36' E 135°18'0 0.0
2016-Jul-21 12:32N 34°36' E 135°18'0 0.0
2016-Jul-21 11:20N 34°36' E 135°18'0 0.1
2016-Jul-21 10:26N 34°36' E 135°18'0 0.0
2016-Jul-21 09:32N 34°36' E 135°18'0 0.0
2016-Jul-21 08:32N 34°36' E 135°18'0 0.0
2016-Jul-21 07:32N 34°36' E 135°18'0 0.0
2016-Jul-21 06:32N 34°36' E 135°18'0 0.0
2016-Jul-21 05:32N 34°36' E 135°18'0 0.1
2016-Jul-21 04:32N 34°36' E 135°18'0 0.0
2016-Jul-21 03:32N 34°36' E 135°18'0 0.0
2016-Jul-21 02:26N 34°36' E 135°18'0 0.0
2016-Jul-21 01:26N 34°36' E 135°18'0 0.0
2016-Jul-21 00:26N 34°36' E 135°18'0 0.0
2016-Jul-20 23:14N 34°36' E 135°18'0 0.0
2016-Jul-20 22:32N 34°36' E 135°18'8 8.0
2016-Jul-20 21:33N 34°29' E 135°13'1211.8
2016-Jul-20 20:33N 34°21' E 135°03'7 7.0
2016-Jul-20 19:33N 34°14' E 135°06'1 1.3
2016-Jul-20 18:32N 34°14' E 135°08'0 0.0
2016-Jul-20 17:32N 34°14' E 135°08'0 0.0
2016-Jul-20 16:32N 34°14' E 135°08'0 0.0
2016-Jul-20 15:32N 34°14' E 135°08'0 0.0
2016-Jul-20 14:32N 34°14' E 135°08'0 0.0
2016-Jul-20 13:26N 34°14' E 135°08'0 0.0
2016-Jul-20 12:26N 34°14' E 135°08'0 0.0
2016-Jul-20 11:32N 34°14' E 135°08'0 0.0
2016-Jul-20 10:32N 34°14' E 135°08'0 0.0
2016-Jul-20 09:23N 34°14' E 135°08'0 0.0
2016-Jul-20 08:29N 34°14' E 135°08'0 0.0
2016-Jul-20 07:23N 34°14' E 135°08'0 0.0
2016-Jul-20 06:34N 34°14' E 135°08'6 5.6
2016-Jul-20 05:33N 34°10' E 135°03'1413.2
2016-Jul-20 04:31N 33°56' E 135°00'22811.9
2016-Jul-19 09:23N 34°57' E 139°27'1313.3
2016-Jul-19 08:24N 35°05' E 139°40'1112.6
2016-Jul-19 07:33N 35°14' E 139°46'15 5.1
2016-Jul-19 04:32N 35°29' E 139°40'0 0.0
2016-Jul-19 03:32N 35°29' E 139°40'0 0.0
2016-Jul-19 02:32N 35°29' E 139°40'0 0.0
2016-Jul-19 01:32N 35°29' E 139°40'0 0.0
2016-Jul-19 00:32N 35°29' E 139°40'0 0.0
2016-Jul-18 23:32N 35°29' E 139°40'0 0.0
2016-Jul-18 22:32N 35°29' E 139°40'0 0.0
2016-Jul-18 21:32N 35°29' E 139°40'0 0.0
2016-Jul-18 20:32N 35°29' E 139°40'0 0.0
2016-Jul-18 19:32N 35°29' E 139°40'0 0.0
2016-Jul-18 18:32N 35°29' E 139°40'0 0.0
2016-Jul-18 17:32N 35°29' E 139°40'0 0.0
2016-Jul-18 16:32N 35°29' E 139°40'0 0.0
2016-Jul-18 15:32N 35°29' E 139°40'0 0.0
2016-Jul-18 14:32N 35°29' E 139°40'0 0.0
2016-Jul-18 13:32N 35°29' E 139°40'0 0.0
2016-Jul-18 12:32N 35°29' E 139°40'0 0.0
2016-Jul-18 11:32N 35°29' E 139°40'0 0.0
2016-Jul-18 10:32N 35°29' E 139°40'0 0.0
2016-Jul-18 09:32N 35°29' E 139°40'0 0.0
2016-Jul-18 08:32N 35°29' E 139°40'0 0.0
2016-Jul-18 07:32N 35°29' E 139°40'0 0.0
2016-Jul-18 06:32N 35°29' E 139°40'0 0.0
2016-Jul-18 05:32N 35°29' E 139°40'0 0.0
2016-Jul-18 04:32N 35°29' E 139°40'0 0.0
2016-Jul-18 03:32N 35°29' E 139°40'0 0.0
2016-Jul-18 02:32N 35°29' E 139°40'0 0.3
2016-Jul-18 01:33N 35°29' E 139°40'9 8.7
2016-Jul-18 00:34N 35°20' E 139°43'1211.7
2016-Jul-17 23:33N 35°09' E 139°46'1612.2
2016-Jul-17 22:15N 34°57' E 139°32'5812.2
2016-Jul-17 17:29N 34°28' E 138°32'17510.7
2016-Jul-17 01:04N 34°05' E 135°02'713.1
2016-Jul-17 00:33N 34°11' E 135°04'4 4.4
2016-Jul-16 23:33N 34°14' E 135°08'0 0.0
2016-Jul-16 22:33N 34°14' E 135°08'0 0.0
2016-Jul-16 21:33N 34°14' E 135°08'0 0.0
2016-Jul-16 20:33N 34°14' E 135°08'0 0.0
2016-Jul-16 19:33N 34°14' E 135°08'0 0.0
2016-Jul-16 18:33N 34°14' E 135°08'1 0.5
2016-Jul-16 17:33N 34°14' E 135°07'7 6.9
2016-Jul-16 16:33N 34°16' E 134°59'1312.7
2016-Jul-16 15:29N 34°29' E 135°02'8 8.8
2016-Jul-16 14:31N 34°36' E 134°57'13 0.4
2016-Jul-15 09:33N 34°41' E 134°42'1514.7
2016-Jul-15 08:31N 34°38' E 134°60'1111.9
2016-Jul-15 07:33N 34°27' E 135°03'1413.9
2016-Jul-15 06:33N 34°13' E 134°59'240 9.6
2016-Jul-14 05:34N 35°08' E 139°44'1211.8
2016-Jul-14 04:34N 35°20' E 139°43'1312.9
2016-Jul-14 03:33N 35°31' E 139°52'9 7.1
2016-Jul-14 02:17N 35°38' E 139°45'0 0.0
2016-Jul-14 01:26N 35°38' E 139°45'0 0.0
2016-Jul-14 00:26N 35°38' E 139°45'0 0.0
2016-Jul-13 23:33N 35°38' E 139°45'1 0.6
2016-Jul-13 22:33N 35°37' E 139°46'6 5.9
2016-Jul-13 21:32N 35°34' E 139°52'0 0.0
2016-Jul-13 20:32N 35°34' E 139°52'0 0.0
2016-Jul-13 19:33N 35°34' E 139°52'0 0.0
2016-Jul-13 18:33N 35°34' E 139°52'0 0.0
2016-Jul-13 17:33N 35°34' E 139°52'0 0.0
2016-Jul-13 16:32N 35°34' E 139°52'0 0.0
2016-Jul-13 15:32N 35°34' E 139°52'0 0.0
2016-Jul-13 14:32N 35°34' E 139°52'0 0.0
2016-Jul-13 13:33N 35°34' E 139°52'1 1.0
2016-Jul-13 12:33N 35°33' E 139°52'1010.3
2016-Jul-13 11:33N 35°26' E 139°42'3 3.0
2016-Jul-13 10:33N 35°29' E 139°40'0 0.0
2016-Jul-13 09:33N 35°29' E 139°40'0 0.0
2016-Jul-13 08:33N 35°29' E 139°40'0 0.0
2016-Jul-13 07:33N 35°29' E 139°40'0 0.0
2016-Jul-13 06:33N 35°29' E 139°40'0 0.0
2016-Jul-13 05:33N 35°29' E 139°40'0 0.0
2016-Jul-13 04:33N 35°29' E 139°40'0 0.0
2016-Jul-13 03:33N 35°29' E 139°40'2 1.7
2016-Jul-13 02:33N 35°27' E 139°41'2 1.5
2016-Jul-13 01:31N 35°26' E 139°42'0 0.0
2016-Jul-13 00:31N 35°26' E 139°42'0 0.0
2016-Jul-12 23:31N 35°26' E 139°42'0 0.0
2016-Jul-12 22:31N 35°26' E 139°42'6 6.0
2016-Jul-12 21:33N 35°20' E 139°43'1111.2
2016-Jul-12 20:33N 35°09' E 139°46'  

Dump ship's entire track history